Time;durP1;ratioP1;P1;durP2;ratioP2;P2;SDS_P1;SDS_P2;PMS_P1;PMS_P2;Temp;Humidity;BMP_temperature;BMP_pressure;BME280_temperature;BME280_humidity;BME280_pressure;Samples;Min_cycle;Max_cycle;Signal;HPM_P1;HPM_P2
2024/02/25 18:37:47;;;;;;;64.30;32.80;;;;;;;9.11;60.13;96331.00;101948;1296;636055;-77
2024/02/25 18:40:19;;;;;;;64.40;31.30;;;;;;;9.03;60.37;96330.77;104511;1262;95903;-77
2024/02/25 18:42:51;;;;;;;66.40;33.30;;;;;;;8.99;60.50;96326.72;104225;1270;95996;-77
2024/02/25 18:45:20;;;;;;;64.10;33.60;;;;;;;8.96;60.63;96325.65;104428;1266;98679;-77
2024/02/25 18:47:50;;;;;;;67.70;34.80;;;;;;;8.89;60.78;96320.73;104676;1265;101857;-77
2024/02/25 18:50:20;;;;;;;69.70;37.00;;;;;;;8.83;60.68;96322.83;104677;1259;436965;-77
2024/02/25 18:52:50;;;;;;;67.90;35.30;;;;;;;8.81;60.85;96327.41;105010;1258;95869;-77
2024/02/25 18:55:20;;;;;;;60.10;32.40;;;;;;;8.79;60.79;96320.50;105113;1257;96712;-77
2024/02/25 18:57:51;;;;;;;59.60;32.40;;;;;;;8.77;60.88;96312.65;105084;1254;100074;-77
2024/02/25 19:00:21;;;;;;;54.50;29.00;;;;;;;8.76;60.93;96311.02;105119;1260;102215;-77
2024/02/25 19:02:51;;;;;;;46.90;26.50;;;;;;;8.76;60.73;96308.06;105014;1255;100536;-77
2024/02/25 19:05:21;;;;;;;43.10;24.60;;;;;;;8.79;60.53;96304.31;105130;1268;96787;-76
2024/02/25 19:07:52;;;;;;;42.40;24.60;;;;;;;8.81;60.35;96305.17;105110;1257;97058;-76
2024/02/25 19:10:34;;;;;;;42.40;23.00;;;;;;;8.81;60.45;96302.73;105186;1252;99789;-78
2024/02/25 19:13:56;;;;;;;34.60;20.90;;;;;;;8.83;60.34;96303.00;104985;1253;100320;-77
2024/02/25 19:16:26;;;;;;;45.40;23.70;;;;;;;8.85;60.51;96305.91;105151;1257;100672;-77
2024/02/25 19:18:56;;;;;;;57.70;31.50;;;;;;;8.88;60.42;96307.53;105380;1257;95858;-77
2024/02/25 19:22:17;;;;;;;66.10;34.30;;;;;;;8.90;60.50;96313.23;105068;1268;97051;-77
2024/02/25 19:24:48;;;;;;;61.30;33.50;;;;;;;8.78;60.93;96312.34;105038;1257;99923;-77
2024/02/25 19:27:18;;;;;;;57.40;32.20;;;;;;;8.66;61.09;96316.55;105346;1254;102446;-77
2024/02/25 19:29:50;;;;;;;65.40;33.10;;;;;;;8.61;61.17;96313.26;104896;1257;101033;-77
2024/02/25 19:32:20;;;;;;;67.60;36.30;;;;;;;8.56;61.41;96311.30;104656;1260;96022;-77
2024/02/25 19:34:50;;;;;;;60.10;33.90;;;;;;;8.52;61.67;96312.67;104921;1268;96211;-78
2024/02/25 19:37:20;;;;;;;58.80;34.60;;;;;;;8.46;61.76;96311.04;105071;1258;101577;-78
2024/02/25 19:39:52;;;;;;;54.70;31.00;;;;;;;8.36;61.80;96307.75;104885;1260;100323;-77
2024/02/25 19:42:22;;;;;;;66.80;37.40;;;;;;;8.32;62.03;96302.88;104894;1256;100554;-77
2024/02/25 19:44:52;;;;;;;60.00;32.40;;;;;;;8.30;62.07;96296.77;104949;1253;95867;-78
2024/02/25 19:47:24;;;;;;;58.90;34.70;;;;;;;8.26;62.27;96292.37;105068;1257;97099;-77
2024/02/25 19:49:53;;;;;;;73.30;41.00;;;;;;;8.24;62.55;96292.63;104679;1261;101644;-77
2024/02/25 19:52:24;;;;;;;63.00;37.50;;;;;;;8.22;62.62;96294.35;104986;1256;100442;-77
2024/02/25 19:54:54;;;;;;;80.80;46.00;;;;;;;8.19;62.69;96295.47;105015;1259;98920;-77
2024/02/25 19:57:23;;;;;;;85.30;45.70;;;;;;;8.16;62.96;96290.90;104814;1258;95895;-77
2024/02/25 19:59:53;;;;;;;82.00;46.20;;;;;;;8.13;63.10;96286.76;104725;1273;96723;-77
2024/02/25 20:02:23;;;;;;;72.10;41.00;;;;;;;8.04;63.29;96284.08;104800;1261;101142;-77
2024/02/25 20:04:53;;;;;;;67.10;38.50;;;;;;;7.95;63.62;96283.35;104990;1257;101890;-77
2024/02/25 20:07:23;;;;;;;72.90;41.00;;;;;;;7.89;63.65;96281.33;104701;1261;100409;-77
2024/02/25 20:09:55;;;;;;;76.30;40.60;;;;;;;7.87;63.87;96284.08;104936;1258;96111;-77
2024/02/25 20:12:27;;;;;;;69.90;38.40;;;;;;;7.88;64.18;96281.10;105013;1257;95793;-77
2024/02/25 20:14:59;;;;;;;67.50;37.70;;;;;;;7.88;64.09;96280.35;104922;1258;101470;-78
2024/02/25 20:17:29;;;;;;;70.50;39.90;;;;;;;7.92;64.16;96277.09;104924;1258;100447;-77
2024/02/25 20:20:00;;;;;;;71.40;37.80;;;;;;;7.94;64.32;96280.17;104818;1261;100460;-78
2024/02/25 20:22:30;;;;;;;65.10;34.30;;;;;;;7.94;64.32;96278.11;104868;1258;96685;-77
2024/02/25 20:25:00;;;;;;;69.90;38.00;;;;;;;7.91;64.43;96283.02;104993;1257;95827;-77
2024/02/25 20:27:30;;;;;;;66.90;36.50;;;;;;;7.85;64.72;96282.83;104798;1253;101437;-78
2024/02/25 20:30:01;;;;;;;75.80;37.50;;;;;;;7.79;64.77;96285.48;104654;1261;100327;-77
2024/02/25 20:32:32;;;;;;;67.20;38.60;;;;;;;7.74;64.87;96287.23;104951;1257;99107;-77
2024/02/25 20:35:02;;;;;;;73.40;38.50;;;;;;;7.71;65.02;96289.08;104717;1260;96011;-77
2024/02/25 20:37:34;;;;;;;66.40;37.90;;;;;;;7.69;65.10;96290.87;104904;1258;95842;-77
2024/02/25 20:40:05;;;;;;;77.90;41.60;;;;;;;7.66;65.09;96290.40;104879;1258;99985;-77
2024/02/25 20:42:34;;;;;;;69.20;39.00;;;;;;;7.66;65.11;96290.56;104824;1256;110522;-77
2024/02/25 20:45:07;;;;;;;68.70;38.30;;;;;;;7.62;65.36;96288.20;104828;1261;98870;-77
2024/02/25 20:47:38;;;;;;;68.70;38.00;;;;;;;7.57;65.42;96287.51;104884;1261;97198;-77
2024/02/25 20:50:09;;;;;;;72.60;36.30;;;;;;;7.56;65.56;96290.10;104841;1269;97131;-77
2024/02/25 20:52:40;;;;;;;77.00;38.20;;;;;;;7.55;65.71;96290.23;104865;1258;108640;-77
2024/02/25 20:55:10;;;;;;;70.90;38.10;;;;;;;7.55;65.91;96289.00;104846;1261;102085;-78
2024/02/25 20:57:40;;;;;;;66.90;36.70;;;;;;;7.57;65.82;96289.08;104876;1256;99538;-77
2024/02/25 21:00:13;;;;;;;65.70;34.60;;;;;;;7.57;65.99;96283.04;104924;1265;96002;-78
2024/02/25 21:02:43;;;;;;;72.50;37.50;;;;;;;7.55;65.97;96282.06;104585;1261;96017;-77
2024/02/25 21:05:14;;;;;;;69.50;35.50;;;;;;;7.50;66.07;96280.27;104791;1261;100422;-77
2024/02/25 21:07:43;;;;;;;69.50;35.90;;;;;;;7.46;66.18;96280.70;104881;1256;101985;-77
2024/02/25 21:10:13;;;;;;;66.30;37.60;;;;;;;7.42;66.18;96280.52;104633;1258;100865;-77
2024/02/25 21:12:42;;;;;;;66.70;37.60;;;;;;;7.41;66.43;96279.77;104440;1277;96125;-77
2024/02/25 21:15:10;;;;;;;71.50;38.10;;;;;;;7.38;66.45;96279.98;104638;1263;96762;-77
2024/02/25 21:17:39;;;;;;;68.00;37.60;;;;;;;7.33;66.51;96272.46;104942;1259;99900;-77
2024/02/25 21:20:09;;;;;;;63.00;35.70;;;;;;;7.31;66.70;96269.33;104786;1260;100346;-77
2024/02/25 21:22:39;;;;;;;64.20;36.90;;;;;;;7.29;66.76;96264.02;104805;1257;99158;-76
2024/02/25 21:25:08;;;;;;;70.50;36.90;;;;;;;7.28;66.73;96263.48;104814;1254;95995;-77
2024/02/25 21:27:36;;;;;;;69.60;37.10;;;;;;;7.26;66.99;96263.16;104894;1257;95857;-77
2024/02/25 21:30:05;;;;;;;67.80;36.00;;;;;;;7.23;67.19;96261.59;104804;1261;101649;-77
2024/02/25 21:32:34;;;;;;;68.10;36.10;;;;;;;7.22;67.18;96263.16;104900;1258;100371;-77
2024/02/25 21:35:02;;;;;;;70.00;35.50;;;;;;;7.22;67.44;96264.16;104918;1258;99066;-77
2024/02/25 21:37:30;;;;;;;62.40;34.90;;;;;;;7.20;67.51;96270.00;105058;1252;95961;-78
2024/02/25 21:40:00;;;;;;;65.70;35.80;;;;;;;7.19;67.49;96271.27;104661;1254;97049;-77
2024/02/25 21:42:29;;;;;;;64.90;35.80;;;;;;;7.17;67.69;96269.80;104975;1253;100925;-77
2024/02/25 21:44:56;;;;;;;67.30;35.60;;;;;;;7.12;67.67;96268.92;104742;1261;101871;-77
